sensor_id;sensor_type;location;lat;lon;timestamp;pressure;altitude;pressure_sealevel;temperature;humidity
55317;BME280;41178;48.956;8.130;2023-04-07T00:02:43;99589.47;;;9.77;48.08
55317;BME280;41178;48.956;8.130;2023-04-07T00:07:45;99525.94;;;12.08;43.76
55317;BME280;41178;48.956;8.130;2023-04-07T00:12:57;99518.09;;;8.57;49.01
55317;BME280;41178;48.956;8.130;2023-04-07T00:17:58;99555.81;;;8.77;48.52
55317;BME280;41178;48.956;8.130;2023-04-07T00:23:00;99588.34;;;9.56;48.29
55317;BME280;41178;48.956;8.130;2023-04-07T00:28:02;99515.50;;;9.92;46.86
55317;BME280;41178;48.956;8.130;2023-04-07T00:33:03;99550.81;;;8.74;49.16
55317;BME280;41178;48.956;8.130;2023-04-07T00:38:10;99564.75;;;9.60;47.99
55317;BME280;41178;48.956;8.130;2023-04-07T00:43:11;99527.75;;;10.38;46.83
55317;BME280;41178;48.956;8.130;2023-04-07T00:48:13;99511.34;;;9.90;46.83
55317;BME280;41178;48.956;8.130;2023-04-07T00:53:15;99567.72;;;9.80;47.79
55317;BME280;41178;48.956;8.130;2023-04-07T00:58:17;99474.09;;;10.03;46.07
55317;BME280;41178;48.956;8.130;2023-04-07T01:03:32;99586.50;;;9.42;49.35
55317;BME280;41178;48.956;8.130;2023-04-07T01:08:50;99540.75;;;9.90;48.50
55317;BME280;41178;48.956;8.130;2023-04-07T01:13:56;99493.31;;;10.50;46.77
55317;BME280;41178;48.956;8.130;2023-04-07T01:19:03;99564.34;;;13.10;41.90
55317;BME280;41178;48.956;8.130;2023-04-07T01:24:26;99529.00;;;10.79;45.59
55317;BME280;41178;48.956;8.130;2023-04-07T01:29:41;99560.81;;;12.77;42.94
55317;BME280;41178;48.956;8.130;2023-04-07T01:34:48;99526.09;;;11.58;44.24
55317;BME280;41178;48.956;8.130;2023-04-07T01:39:51;99580.66;;;13.02;42.29
55317;BME280;41178;48.956;8.130;2023-04-07T01:44:53;99513.41;;;11.39;44.17
55317;BME280;41178;48.956;8.130;2023-04-07T01:49:58;99518.03;;;11.23;44.70
55317;BME280;41178;48.956;8.130;2023-04-07T01:55:02;99533.25;;;11.51;44.78
55317;BME280;41178;48.956;8.130;2023-04-07T02:00:05;99538.03;;;11.56;44.71
55317;BME280;41178;48.956;8.130;2023-04-07T02:05:08;99517.78;;;11.18;44.92
55317;BME280;41178;48.956;8.130;2023-04-07T02:10:15;99540.22;;;10.89;45.87
55317;BME280;41178;48.956;8.130;2023-04-07T02:15:18;99511.13;;;11.36;44.86
55317;BME280;41178;48.956;8.130;2023-04-07T02:20:20;99526.25;;;11.85;44.09
55317;BME280;41178;48.956;8.130;2023-04-07T02:25:26;99500.22;;;10.44;46.13
55317;BME280;41178;48.956;8.130;2023-04-07T02:30:29;99457.31;;;10.31;45.44
55317;BME280;41178;48.956;8.130;2023-04-07T02:35:30;99514.53;;;10.73;46.17
55317;BME280;41178;48.956;8.130;2023-04-07T02:40:32;99502.25;;;10.79;46.33
55317;BME280;41178;48.956;8.130;2023-04-07T02:45:34;99454.41;;;9.00;48.76
55317;BME280;41178;48.956;8.130;2023-04-07T02:50:36;99496.69;;;10.22;48.16
55317;BME280;41178;48.956;8.130;2023-04-07T02:55:38;99483.59;;;10.70;46.84
55317;BME280;41178;48.956;8.130;2023-04-07T03:00:39;99512.22;;;11.48;46.03
55317;BME280;41178;48.956;8.130;2023-04-07T03:05:41;99521.03;;;11.70;44.87
55317;BME280;41178;48.956;8.130;2023-04-07T03:10:42;99511.31;;;11.62;44.68
55317;BME280;41178;48.956;8.130;2023-04-07T03:15:44;99529.19;;;10.99;45.76
55317;BME280;41178;48.956;8.130;2023-04-07T03:20:47;99505.06;;;11.27;45.21
55317;BME280;41178;48.956;8.130;2023-04-07T03:25:49;99503.91;;;11.36;45.00
55317;BME280;41178;48.956;8.130;2023-04-07T03:30:50;99498.78;;;11.41;44.79
55317;BME280;41178;48.956;8.130;2023-04-07T03:35:52;99498.38;;;10.88;45.35
55317;BME280;41178;48.956;8.130;2023-04-07T03:40:54;99529.16;;;11.90;43.87
55317;BME280;41178;48.956;8.130;2023-04-07T03:45:56;99556.28;;;12.09;43.32
55317;BME280;41178;48.956;8.130;2023-04-07T03:50:58;99528.38;;;11.61;43.84
55317;BME280;41178;48.956;8.130;2023-04-07T03:56:00;99536.63;;;11.95;43.26
55317;BME280;41178;48.956;8.130;2023-04-07T04:01:02;99474.50;;;10.65;45.08
55317;BME280;41178;48.956;8.130;2023-04-07T04:06:03;99502.59;;;11.25;44.17
55317;BME280;41178;48.956;8.130;2023-04-07T04:11:06;99503.38;;;11.19;44.86
55317;BME280;41178;48.956;8.130;2023-04-07T04:16:08;99489.22;;;10.97;44.88
55317;BME280;41178;48.956;8.130;2023-04-07T04:21:10;99492.81;;;11.11;44.24
55317;BME280;41178;48.956;8.130;2023-04-07T04:26:11;99522.03;;;11.62;43.98
55317;BME280;41178;48.956;8.130;2023-04-07T04:31:13;99444.78;;;9.80;46.39
55317;BME280;41178;48.956;8.130;2023-04-07T04:36:15;99505.16;;;10.84;45.77
55317;BME280;41178;48.956;8.130;2023-04-07T04:41:16;99455.00;;;9.40;47.60
55317;BME280;41178;48.956;8.130;2023-04-07T04:46:18;99484.06;;;9.80;47.26
55317;BME280;41178;48.956;8.130;2023-04-07T04:51:20;99472.84;;;9.84;47.35
55317;BME280;41178;48.956;8.130;2023-04-07T04:56:22;99495.84;;;10.37;46.41
55317;BME280;41178;48.956;8.130;2023-04-07T05:01:23;99490.81;;;10.70;45.95
55317;BME280;41178;48.956;8.130;2023-04-07T05:06:25;99523.09;;;11.12;45.04
55317;BME280;41178;48.956;8.130;2023-04-07T05:11:27;99485.47;;;10.70;45.27
55317;BME280;41178;48.956;8.130;2023-04-07T05:16:29;99530.38;;;10.96;45.59
55317;BME280;41178;48.956;8.130;2023-04-07T05:21:31;99523.78;;;10.92;45.72
55317;BME280;41178;48.956;8.130;2023-04-07T05:26:33;99546.63;;;11.44;44.32
55317;BME280;41178;48.956;8.130;2023-04-07T05:31:35;99581.09;;;12.24;43.56
55317;BME280;41178;48.956;8.130;2023-04-07T05:36:37;99489.34;;;10.46;46.18
55317;BME280;41178;48.956;8.130;2023-04-07T05:41:39;99518.16;;;11.09;45.20
55317;BME280;41178;48.956;8.130;2023-04-07T05:46:41;99505.16;;;10.84;45.68
55317;BME280;41178;48.956;8.130;2023-04-07T05:51:43;99560.53;;;11.90;45.14
55317;BME280;41178;48.956;8.130;2023-04-07T05:56:47;99561.06;;;13.55;41.84
55317;BME280;41178;48.956;8.130;2023-04-07T06:01:48;99550.94;;;13.10;42.70
55317;BME280;41178;48.956;8.130;2023-04-07T06:06:50;99565.47;;;14.15;41.20
55317;BME280;41178;48.956;8.130;2023-04-07T06:11:55;99494.31;;;12.65;43.16
55317;BME280;41178;48.956;8.130;2023-04-07T06:16:57;99517.50;;;9.46;50.39
55317;BME280;41178;48.956;8.130;2023-04-07T06:21:59;99501.47;;;11.13;47.39
55317;BME280;41178;48.956;8.130;2023-04-07T06:27:01;99477.53;;;12.43;44.37
55317;BME280;41178;48.956;8.130;2023-04-07T06:32:04;99495.44;;;11.33;46.92
55317;BME280;41178;48.956;8.130;2023-04-07T06:37:07;99457.03;;;11.60;46.50
55317;BME280;41178;48.956;8.130;2023-04-07T06:42:08;99473.38;;;12.27;45.05
55317;BME280;41178;48.956;8.130;2023-04-07T06:47:10;99485.13;;;12.19;45.47
55317;BME280;41178;48.956;8.130;2023-04-07T06:52:12;99536.47;;;13.52;42.64
55317;BME280;41178;48.956;8.130;2023-04-07T06:57:14;99544.84;;;13.89;43.05
55317;BME280;41178;48.956;8.130;2023-04-07T07:02:16;99500.94;;;12.01;46.35
55317;BME280;41178;48.956;8.130;2023-04-07T07:07:18;99435.78;;;12.14;45.02
55317;BME280;41178;48.956;8.130;2023-04-07T07:12:20;99456.50;;;12.47;44.34
55317;BME280;41178;48.956;8.130;2023-04-07T07:17:21;99445.22;;;11.90;46.01
55317;BME280;41178;48.956;8.130;2023-04-07T07:22:23;99422.28;;;10.97;46.83
55317;BME280;41178;48.956;8.130;2023-04-07T07:27:25;99499.19;;;11.10;48.05
55317;BME280;41178;48.956;8.130;2023-04-07T07:32:27;99501.84;;;10.60;48.08
55317;BME280;41178;48.956;8.130;2023-04-07T07:37:29;99439.38;;;9.73;49.59
55317;BME280;41178;48.956;8.130;2023-04-07T07:42:31;99483.72;;;10.41;49.14
55317;BME280;41178;48.956;8.130;2023-04-07T07:47:33;99511.47;;;13.11;44.79
55317;BME280;41178;48.956;8.130;2023-04-07T07:52:34;99490.41;;;12.88;45.57
55317;BME280;41178;48.956;8.130;2023-04-07T07:57:36;99538.81;;;13.93;43.55
55317;BME280;41178;48.956;8.130;2023-04-07T08:02:38;99540.44;;;14.08;43.74
55317;BME280;41178;48.956;8.130;2023-04-07T08:07:40;99543.19;;;14.39;42.88
55317;BME280;41178;48.956;8.130;2023-04-07T08:12:43;99539.81;;;14.12;43.37
55317;BME280;41178;48.956;8.130;2023-04-07T08:17:45;99532.78;;;14.50;42.84
55317;BME280;41178;48.956;8.130;2023-04-07T08:22:47;99526.72;;;14.61;42.39
55317;BME280;41178;48.956;8.130;2023-04-07T08:27:49;99430.16;;;11.89;47.09
55317;BME280;41178;48.956;8.130;2023-04-07T08:32:51;99501.47;;;14.17;44.16
55317;BME280;41178;48.956;8.130;2023-04-07T08:37:52;99474.50;;;13.85;43.85
55317;BME280;41178;48.956;8.130;2023-04-07T08:42:57;99500.78;;;14.35;43.27
55317;BME280;41178;48.956;8.130;2023-04-07T08:48:03;99447.41;;;13.28;44.40
55317;BME280;41178;48.956;8.130;2023-04-07T08:53:12;99458.88;;;14.14;43.74
55317;BME280;41178;48.956;8.130;2023-04-07T08:58:15;99426.47;;;13.50;43.62
55317;BME280;41178;48.956;8.130;2023-04-07T09:03:17;99443.34;;;14.48;43.13
55317;BME280;41178;48.956;8.130;2023-04-07T09:08:20;99446.97;;;13.31;45.39
55317;BME280;41178;48.956;8.130;2023-04-07T09:13:23;99483.44;;;14.81;43.55
55317;BME280;41178;48.956;8.130;2023-04-07T09:18:27;99412.19;;;13.50;44.77
55317;BME280;41178;48.956;8.130;2023-04-07T09:23:39;99461.97;;;14.49;43.61
55317;BME280;41178;48.956;8.130;2023-04-07T09:28:42;99453.84;;;12.93;46.02
55317;BME280;41178;48.956;8.130;2023-04-07T09:33:43;99449.94;;;14.20;45.16
55317;BME280;41178;48.956;8.130;2023-04-07T09:38:45;99487.25;;;15.24;43.57
55317;BME280;41178;48.956;8.130;2023-04-07T09:43:47;99457.66;;;13.58;44.95
55317;BME280;41178;48.956;8.130;2023-04-07T09:49:02;99439.66;;;11.85;47.07
55317;BME280;41178;48.956;8.130;2023-04-07T09:54:08;99473.75;;;12.11;47.50
55317;BME280;41178;48.956;8.130;2023-04-07T09:59:10;99440.69;;;14.09;44.86
55317;BME280;41178;48.956;8.130;2023-04-07T10:04:12;99459.38;;;14.36;43.88
55317;BME280;41178;48.956;8.130;2023-04-07T10:09:15;99458.69;;;14.09;44.65
55317;BME280;41178;48.956;8.130;2023-04-07T10:14:19;99489.66;;;15.13;42.60
55317;BME280;41178;48.956;8.130;2023-04-07T10:19:22;99442.13;;;14.12;43.57
55317;BME280;41178;48.956;8.130;2023-04-07T10:24:45;99416.16;;;13.85;43.75
55317;BME280;41178;48.956;8.130;2023-04-07T10:29:51;99412.34;;;13.61;43.88
55317;BME280;41178;48.956;8.130;2023-04-07T10:34:55;99468.28;;;14.62;43.04
55317;BME280;41178;48.956;8.130;2023-04-07T10:56:06;99410.53;;;15.94;40.35
55317;BME280;41178;48.956;8.130;2023-04-07T11:06:31;99557.06;;;12.51;47.39
55317;BME280;41178;48.956;8.130;2023-04-07T11:11:38;99513.53;;;12.55;46.62
55317;BME280;41178;48.956;8.130;2023-04-07T11:16:41;99522.22;;;12.71;46.47
55317;BME280;41178;48.956;8.130;2023-04-07T11:21:43;99478.84;;;12.87;45.32
55317;BME280;41178;48.956;8.130;2023-04-07T11:26:45;99499.81;;;13.71;44.32
55317;BME280;41178;48.956;8.130;2023-04-07T11:31:49;99476.25;;;14.75;42.89
55317;BME280;41178;48.956;8.130;2023-04-07T11:36:51;99478.38;;;14.02;44.33
55317;BME280;41178;48.956;8.130;2023-04-07T11:41:53;99480.56;;;14.83;42.97
55317;BME280;41178;48.956;8.130;2023-04-07T11:46:57;99437.31;;;13.75;43.65
55317;BME280;41178;48.956;8.130;2023-04-07T11:52:04;99486.25;;;13.39;43.62
55317;BME280;41178;48.956;8.130;2023-04-07T11:57:07;99490.38;;;13.48;43.50
55317;BME280;41178;48.956;8.130;2023-04-07T12:02:29;99487.19;;;14.55;42.91
55317;BME280;41178;48.956;8.130;2023-04-07T12:07:32;99515.19;;;12.77;44.37
55317;BME280;41178;48.956;8.130;2023-04-07T12:12:33;99482.00;;;14.53;42.06
55317;BME280;41178;48.956;8.130;2023-04-07T12:17:35;99472.84;;;12.72;43.09
55317;BME280;41178;48.956;8.130;2023-04-07T12:22:36;99468.13;;;13.79;42.74
55317;BME280;41178;48.956;8.130;2023-04-07T12:27:38;99462.25;;;12.24;43.15
55317;BME280;41178;48.956;8.130;2023-04-07T12:32:44;99479.19;;;13.44;42.54
55317;BME280;41178;48.956;8.130;2023-04-07T12:37:45;99408.06;;;11.73;43.75
55317;BME280;41178;48.956;8.130;2023-04-07T12:42:50;99462.50;;;11.80;45.43
55317;BME280;41178;48.956;8.130;2023-04-07T12:47:52;99471.94;;;11.35;48.26
55317;BME280;41178;48.956;8.130;2023-04-07T12:52:54;99521.66;;;11.72;45.19
55317;BME280;41178;48.956;8.130;2023-04-07T12:57:55;99479.25;;;12.64;46.45
55317;BME280;41178;48.956;8.130;2023-04-07T13:02:57;99504.09;;;11.35;49.01
55317;BME280;41178;48.956;8.130;2023-04-07T13:07:59;99449.50;;;11.77;47.94
55317;BME280;41178;48.956;8.130;2023-04-07T13:13:01;99519.63;;;10.89;51.48
55317;BME280;41178;48.956;8.130;2023-04-07T13:18:03;99523.78;;;10.92;51.19
55317;BME280;41178;48.956;8.130;2023-04-07T13:23:04;99512.00;;;11.78;49.65
55317;BME280;41178;48.956;8.130;2023-04-07T13:28:10;99458.09;;;12.21;48.05
55317;BME280;41178;48.956;8.130;2023-04-07T13:33:12;99529.03;;;11.07;51.32
55317;BME280;41178;48.956;8.130;2023-04-07T13:38:13;99451.81;;;9.66;53.36
55317;BME280;41178;48.956;8.130;2023-04-07T13:43:15;99527.72;;;10.75;52.48
55317;BME280;41178;48.956;8.130;2023-04-07T13:48:19;99487.16;;;10.56;52.04
55317;BME280;41178;48.956;8.130;2023-04-07T13:53:21;99477.03;;;11.23;51.63
55317;BME280;41178;48.956;8.130;2023-04-07T13:58:23;99434.25;;;9.42;54.44
55317;BME280;41178;48.956;8.130;2023-04-07T14:03:25;99485.28;;;9.62;53.54
55317;BME280;41178;48.956;8.130;2023-04-07T14:08:28;99531.13;;;11.40;50.26
55317;BME280;41178;48.956;8.130;2023-04-07T14:13:30;99543.25;;;13.61;47.57
55317;BME280;41178;48.956;8.130;2023-04-07T14:18:31;99492.88;;;12.76;47.56
55317;BME280;41178;48.956;8.130;2023-04-07T14:23:33;99537.81;;;11.22;50.95
55317;BME280;41178;48.956;8.130;2023-04-07T14:28:38;99564.97;;;13.53;48.39
55317;BME280;41178;48.956;8.130;2023-04-07T14:33:44;99565.66;;;14.13;47.43
55317;BME280;41178;48.956;8.130;2023-04-07T14:38:46;99534.41;;;13.20;49.69
55317;BME280;41178;48.956;8.130;2023-04-07T14:43:47;99563.91;;;11.70;52.35
55317;BME280;41178;48.956;8.130;2023-04-07T14:48:54;99536.25;;;12.86;49.99
55317;BME280;41178;48.956;8.130;2023-04-07T14:53:57;99577.47;;;14.19;47.38
55317;BME280;41178;48.956;8.130;2023-04-07T14:58:59;99571.47;;;14.03;47.48
55317;BME280;41178;48.956;8.130;2023-04-07T15:04:01;99604.03;;;14.86;46.72
55317;BME280;41178;48.956;8.130;2023-04-07T15:09:03;99532.53;;;13.21;49.02
55317;BME280;41178;48.956;8.130;2023-04-07T15:14:05;99541.88;;;12.30;51.33
55317;BME280;41178;48.956;8.130;2023-04-07T15:19:07;99547.28;;;10.97;51.77
55317;BME280;41178;48.956;8.130;2023-04-07T15:24:08;99553.16;;;12.67;48.44
55317;BME280;41178;48.956;8.130;2023-04-07T15:29:10;99587.91;;;12.88;48.18
55317;BME280;41178;48.956;8.130;2023-04-07T15:34:11;99563.94;;;11.77;50.36
55317;BME280;41178;48.956;8.130;2023-04-07T15:39:14;99650.38;;;15.01;45.77
55317;BME280;41178;48.956;8.130;2023-04-07T15:44:17;99602.25;;;14.28;46.82
55317;BME280;41178;48.956;8.130;2023-04-07T15:49:19;99581.56;;;13.29;48.98
55317;BME280;41178;48.956;8.130;2023-04-07T15:54:26;99623.63;;;14.02;48.26
55317;BME280;41178;48.956;8.130;2023-04-07T15:59:27;99591.44;;;13.69;47.91
55317;BME280;41178;48.956;8.130;2023-04-07T16:04:31;99621.09;;;14.28;46.73
55317;BME280;41178;48.956;8.130;2023-04-07T16:09:33;99644.06;;;14.82;45.61
55317;BME280;41178;48.956;8.130;2023-04-07T16:14:34;99651.97;;;15.41;44.56
55317;BME280;41178;48.956;8.130;2023-04-07T16:19:36;99620.16;;;14.92;45.64
55317;BME280;41178;48.956;8.130;2023-04-07T16:24:38;99576.03;;;14.03;47.91
55317;BME280;41178;48.956;8.130;2023-04-07T16:29:40;99593.44;;;11.27;52.72
55317;BME280;41178;48.956;8.130;2023-04-07T16:34:41;99630.56;;;14.89;46.82
55317;BME280;41178;48.956;8.130;2023-04-07T16:39:43;99618.38;;;14.34;47.17
55317;BME280;41178;48.956;8.130;2023-04-07T16:44:45;99635.22;;;14.68;47.21
55317;BME280;41178;48.956;8.130;2023-04-07T16:49:46;99582.47;;;12.62;50.01
55317;BME280;41178;48.956;8.130;2023-04-07T16:54:49;99593.16;;;11.65;51.86
55317;BME280;41178;48.956;8.130;2023-04-07T16:59:51;99624.16;;;11.74;52.08
55317;BME280;41178;48.956;8.130;2023-04-07T17:04:53;99577.13;;;12.75;49.75
55317;BME280;41178;48.956;8.130;2023-04-07T17:09:54;99616.16;;;12.23;51.70
55317;BME280;41178;48.956;8.130;2023-04-07T17:14:56;99625.50;;;11.92;52.50
55317;BME280;41178;48.956;8.130;2023-04-07T17:19:58;99643.94;;;13.78;48.96
55317;BME280;41178;48.956;8.130;2023-04-07T17:25:00;99678.31;;;12.33;51.69
55317;BME280;41178;48.956;8.130;2023-04-07T17:30:02;99644.94;;;13.04;50.38
55317;BME280;41178;48.956;8.130;2023-04-07T17:35:04;99686.59;;;15.12;45.55
55317;BME280;41178;48.956;8.130;2023-04-07T17:40:06;99681.16;;;14.15;47.65
55317;BME280;41178;48.956;8.130;2023-04-07T17:45:09;99730.63;;;15.31;45.72
55317;BME280;41178;48.956;8.130;2023-04-07T17:50:11;99687.75;;;13.25;49.09
55317;BME280;41178;48.956;8.130;2023-04-07T17:55:12;99670.53;;;12.03;51.00
55317;BME280;41178;48.956;8.130;2023-04-07T18:00:14;99674.47;;;12.07;50.80
55317;BME280;41178;48.956;8.130;2023-04-07T18:05:16;99697.78;;;12.83;49.81
55317;BME280;41178;48.956;8.130;2023-04-07T18:10:17;99685.47;;;12.19;50.88
55317;BME280;41178;48.956;8.130;2023-04-07T18:15:19;99698.34;;;11.52;52.91
55317;BME280;41178;48.956;8.130;2023-04-07T18:20:21;99743.53;;;13.10;50.32
55317;BME280;41178;48.956;8.130;2023-04-07T18:25:23;99702.88;;;12.65;50.13
55317;BME280;41178;48.956;8.130;2023-04-07T18:30:25;99733.63;;;11.99;51.25
55317;BME280;41178;48.956;8.130;2023-04-07T18:35:26;99762.06;;;13.46;48.67
55317;BME280;41178;48.956;8.130;2023-04-07T18:40:28;99743.97;;;12.02;50.61
55317;BME280;41178;48.956;8.130;2023-04-07T18:45:33;99793.88;;;13.36;48.61
55317;BME280;41178;48.956;8.130;2023-04-07T18:50:37;99749.81;;;12.76;48.52
55317;BME280;41178;48.956;8.130;2023-04-07T18:55:38;99789.31;;;13.37;47.91
55317;BME280;41178;48.956;8.130;2023-04-07T19:00:41;99784.72;;;12.76;48.64
55317;BME280;41178;48.956;8.130;2023-04-07T19:05:43;99869.09;;;14.85;45.19
55317;BME280;41178;48.956;8.130;2023-04-07T19:10:48;99813.16;;;12.70;49.80
55317;BME280;41178;48.956;8.130;2023-04-07T19:15:51;99792.44;;;12.00;50.41
55317;BME280;41178;48.956;8.130;2023-04-07T19:20:53;99771.88;;;11.43;51.64
55317;BME280;41178;48.956;8.130;2023-04-07T19:25:55;99843.47;;;13.34;48.22
55317;BME280;41178;48.956;8.130;2023-04-07T19:30:57;99859.44;;;12.72;49.77
55317;BME280;41178;48.956;8.130;2023-04-07T19:35:59;99830.41;;;12.82;49.47
55317;BME280;41178;48.956;8.130;2023-04-07T19:41:01;99828.13;;;12.01;50.67
55317;BME280;41178;48.956;8.130;2023-04-07T19:46:03;99847.47;;;12.46;49.49
55317;BME280;41178;48.956;8.130;2023-04-07T19:51:06;99850.94;;;12.68;49.47
55317;BME280;41178;48.956;8.130;2023-04-07T19:56:08;99887.78;;;13.58;48.15
55317;BME280;41178;48.956;8.130;2023-04-07T20:01:17;99880.16;;;13.13;48.56
55317;BME280;41178;48.956;8.130;2023-04-07T20:06:19;99865.59;;;12.94;49.04
55317;BME280;41178;48.956;8.130;2023-04-07T20:11:25;99867.50;;;12.72;49.48
55317;BME280;41178;48.956;8.130;2023-04-07T20:16:30;99893.63;;;13.20;48.96
55317;BME280;41178;48.956;8.130;2023-04-07T20:21:32;99882.41;;;12.74;49.99
55317;BME280;41178;48.956;8.130;2023-04-07T20:26:33;99844.72;;;11.68;51.87
55317;BME280;41178;48.956;8.130;2023-04-07T20:31:35;99872.78;;;12.59;49.70
55317;BME280;41178;48.956;8.130;2023-04-07T20:36:37;99856.91;;;12.35;50.01
55317;BME280;41178;48.956;8.130;2023-04-07T20:41:39;99886.00;;;12.60;49.91
55317;BME280;41178;48.956;8.130;2023-04-07T20:46:43;99867.72;;;12.21;50.68
55317;BME280;41178;48.956;8.130;2023-04-07T20:51:46;99955.38;;;14.03;48.13
55317;BME280;41178;48.956;8.130;2023-04-07T20:56:48;99927.38;;;13.29;48.50
55317;BME280;41178;48.956;8.130;2023-04-07T21:01:49;99980.94;;;14.47;46.60
55317;BME280;41178;48.956;8.130;2023-04-07T21:06:51;99977.88;;;14.90;45.80
55317;BME280;41178;48.956;8.130;2023-04-07T21:11:53;99977.00;;;15.10;45.31
55317;BME280;41178;48.956;8.130;2023-04-07T21:16:55;99968.84;;;15.57;44.92
55317;BME280;41178;48.956;8.130;2023-04-07T21:21:56;99952.84;;;15.62;44.94
55317;BME280;41178;48.956;8.130;2023-04-07T21:26:59;99946.03;;;15.59;45.02
55317;BME280;41178;48.956;8.130;2023-04-07T21:32:01;99886.50;;;14.62;46.49
55317;BME280;41178;48.956;8.130;2023-04-07T21:37:03;99921.41;;;15.36;45.26
55317;BME280;41178;48.956;8.130;2023-04-07T21:42:04;99857.53;;;14.31;46.73
55317;BME280;41178;48.956;8.130;2023-04-07T21:47:06;99902.22;;;15.05;45.81
55317;BME280;41178;48.956;8.130;2023-04-07T21:52:07;99872.84;;;14.57;46.08
55317;BME280;41178;48.956;8.130;2023-04-07T21:57:09;99869.59;;;13.66;47.85
55317;BME280;41178;48.956;8.130;2023-04-07T22:02:11;99880.09;;;14.30;46.71
55317;BME280;41178;48.956;8.130;2023-04-07T22:07:13;99856.13;;;13.46;48.16
55317;BME280;41178;48.956;8.130;2023-04-07T22:12:15;99871.97;;;14.03;47.33
55317;BME280;41178;48.956;8.130;2023-04-07T22:17:17;99886.94;;;14.12;47.53
55317;BME280;41178;48.956;8.130;2023-04-07T22:22:18;99891.28;;;14.33;46.38
55317;BME280;41178;48.956;8.130;2023-04-07T22:27:20;99919.19;;;15.12;45.15
55317;BME280;41178;48.956;8.130;2023-04-07T22:32:21;99865.78;;;13.34;48.13
55317;BME280;41178;48.956;8.130;2023-04-07T22:37:23;99912.81;;;14.60;46.89
55317;BME280;41178;48.956;8.130;2023-04-07T22:42:25;99874.44;;;13.98;47.02
55317;BME280;41178;48.956;8.130;2023-04-07T22:47:26;99846.41;;;13.45;47.40
55317;BME280;41178;48.956;8.130;2023-04-07T22:52:28;99921.91;;;14.99;45.51
55317;BME280;41178;48.956;8.130;2023-04-07T22:57:30;99930.38;;;15.09;45.22
55317;BME280;41178;48.956;8.130;2023-04-07T23:02:31;99844.88;;;12.88;48.58
55317;BME280;41178;48.956;8.130;2023-04-07T23:07:33;99892.41;;;13.71;47.70
55317;BME280;41178;48.956;8.130;2023-04-07T23:12:35;99852.38;;;12.99;47.88
55317;BME280;41178;48.956;8.130;2023-04-07T23:17:38;99880.94;;;13.07;48.76
55317;BME280;41178;48.956;8.130;2023-04-07T23:22:40;99947.13;;;15.25;45.25
55317;BME280;41178;48.956;8.130;2023-04-07T23:27:42;99955.19;;;15.38;44.71
55317;BME280;41178;48.956;8.130;2023-04-07T23:32:43;99959.56;;;15.39;44.57
55317;BME280;41178;48.956;8.130;2023-04-07T23:37:45;99963.47;;;15.37;43.87
55317;BME280;41178;48.956;8.130;2023-04-07T23:42:47;99915.50;;;14.73;45.04
55317;BME280;41178;48.956;8.130;2023-04-07T23:47:48;99892.56;;;13.62;46.93
55317;BME280;41178;48.956;8.130;2023-04-07T23:52:50;99935.56;;;15.04;45.06
55317;BME280;41178;48.956;8.130;2023-04-07T23:57:52;99940.16;;;14.97;44.90
